Time;durP1;ratioP1;P1;durP2;ratioP2;P2;SDS_P1;SDS_P2;PMS_P1;PMS_P2;Temp;Humidity;BMP_temperature;BMP_pressure;BME280_temperature;BME280_humidity;BME280_pressure;Samples;Min_cycle;Max_cycle;Signal;HPM_P1;HPM_P2
2022/05/02 00:01:52;;;;;;;31.10;16.97;;;;;;;7.44;64.42;97420.98;1637077;87;27379;-74
2022/05/02 00:04:18;;;;;;;23.77;16.17;;;;;;;7.45;64.54;97416.44;1636936;87;25790;-75
2022/05/02 00:06:47;;;;;;;26.35;16.02;;;;;;;7.43;64.72;97411.26;1637324;87;25841;-75
2022/05/02 00:09:13;;;;;;;24.85;16.23;;;;;;;7.40;64.71;97415.66;1637096;87;25864;-75
2022/05/02 00:11:40;;;;;;;22.37;15.85;;;;;;;7.36;64.86;97407.69;1637277;87;26910;-76
2022/05/02 00:14:06;;;;;;;17.92;13.48;;;;;;;7.38;64.96;97410.98;1637097;87;27551;-75
2022/05/02 00:16:34;;;;;;;19.40;13.50;;;;;;;7.37;65.00;97420.06;1637078;87;25747;-75
2022/05/02 00:19:01;;;;;;;20.35;14.05;;;;;;;7.36;64.97;97417.08;1677499;84;25726;-74
2022/05/02 00:21:27;;;;;;;19.30;14.28;;;;;;;7.34;65.00;97415.09;1690620;84;25748;-75
2022/05/02 00:23:54;;;;;;;20.57;15.28;;;;;;;7.33;65.10;97406.72;1690566;84;25880;-75
2022/05/02 00:26:20;;;;;;;21.77;15.80;;;;;;;7.33;65.23;97412.59;1690627;84;27476;-76
2022/05/02 00:28:47;;;;;;;23.73;15.65;;;;;;;7.35;65.26;97410.56;1690356;84;25816;-75
2022/05/02 00:31:14;;;;;;;24.40;16.00;;;;;;;7.33;65.35;97408.06;1690402;84;25666;-75
2022/05/02 00:33:40;;;;;;;20.15;13.98;;;;;;;7.34;65.32;97405.70;1690633;84;25708;-76
2022/05/02 00:36:07;;;;;;;15.90;12.40;;;;;;;7.33;65.28;97406.72;1690681;84;25718;-75
2022/05/02 00:38:34;;;;;;;18.98;12.95;;;;;;;7.33;65.28;97409.41;1690526;84;27399;-74
2022/05/02 00:41:00;;;;;;;21.93;13.10;;;;;;;7.31;65.30;97409.27;1690455;84;26101;-75
2022/05/02 00:43:27;;;;;;;18.00;12.98;;;;;;;7.29;65.26;97409.96;1690517;84;25748;-74
2022/05/02 00:45:53;;;;;;;16.12;12.63;;;;;;;7.23;65.30;97411.06;1690460;84;26391;-75
2022/05/02 00:48:20;;;;;;;16.52;13.10;;;;;;;7.14;65.29;97411.34;1690543;84;25942;-76
2022/05/02 00:50:47;;;;;;;17.23;13.03;;;;;;;7.08;65.47;97412.11;1690200;84;28492;-77
2022/05/02 00:53:17;;;;;;;18.57;12.68;;;;;;;7.04;65.58;97412.16;1690119;84;25750;-76
2022/05/02 00:55:45;;;;;;;17.60;13.30;;;;;;;7.04;65.61;97409.48;1690633;84;25702;-75
2022/05/02 00:58:14;;;;;;;16.82;12.85;;;;;;;7.01;65.57;97409.34;1690532;84;25698;-75
2022/05/02 01:00:41;;;;;;;18.50;13.53;;;;;;;6.97;65.58;97409.92;1690484;84;25751;-74
2022/05/02 01:03:10;;;;;;;16.17;12.82;;;;;;;6.92;65.61;97409.14;1690517;84;27419;-75
2022/05/02 01:08:27;;;;;;;25.10;14.93;;;;;;;6.88;65.68;97407.33;1649963;86;25871;-74
2022/05/02 01:10:56;;;;;;;21.15;13.45;;;;;;;6.86;65.75;97413.42;1622327;88;25786;-76
2022/05/02 01:13:45;;;;;;;19.35;13.40;;;;;;;6.80;65.71;97404.77;1622633;88;25825;-74
2022/05/02 01:16:21;;;;;;;19.00;13.15;;;;;;;6.73;65.88;97397.66;1564369;91;27337;-74
2022/05/02 01:18:50;;;;;;;18.32;13.18;;;;;;;6.65;65.93;97403.94;1564236;91;25760;-77
2022/05/02 01:21:26;;;;;;;20.30;14.07;;;;;;;6.57;66.00;97398.69;1564219;91;25341;-74
2022/05/02 01:23:57;;;;;;;22.82;15.75;;;;;;;6.49;66.13;97396.11;1564326;91;26262;-74
2022/05/02 01:26:24;;;;;;;28.67;17.75;;;;;;;6.40;66.32;97392.67;1559298;91;25355;-75
2022/05/02 01:28:53;;;;;;;29.25;17.87;;;;;;;6.32;66.50;97395.97;1544728;92;27560;-77
2022/05/02 01:31:21;;;;;;;22.52;15.72;;;;;;;6.26;66.65;97399.41;1559313;91;25867;-76
2022/05/02 01:33:49;;;;;;;20.85;14.53;;;;;;;6.21;66.78;97395.92;1544874;91;25912;-76
2022/05/02 01:36:17;;;;;;;20.27;13.25;;;;;;;6.19;66.91;97388.56;1559443;91;25883;-74
2022/05/02 01:38:44;;;;;;;16.65;13.38;;;;;;;6.23;67.07;97389.88;1538402;92;26029;-78
2022/05/02 01:41:11;;;;;;;19.20;13.38;;;;;;;6.28;67.11;97386.11;1545271;92;27027;-75
2022/05/02 01:43:39;;;;;;;21.45;13.58;;;;;;;6.34;67.09;97387.23;1549776;91;25776;-74
2022/05/02 01:46:09;;;;;;;17.25;12.82;;;;;;;6.37;67.10;97389.55;1574534;90;25877;-77
2022/05/02 01:48:36;;;;;;;22.27;14.23;;;;;;;6.39;67.07;97391.55;1574583;90;26879;-75
2022/05/02 01:51:03;;;;;;;21.75;14.05;;;;;;;6.38;67.14;97396.08;1574549;90;25810;-77
2022/05/02 01:53:30;;;;;;;19.02;13.75;;;;;;;6.38;67.19;97391.22;1567160;90;27428;-76
2022/05/02 01:55:58;;;;;;;20.95;14.47;;;;;;;6.36;67.21;97391.91;1566640;90;25796;-76
2022/05/02 01:58:25;;;;;;;23.75;15.98;;;;;;;6.35;67.19;97387.05;1566784;90;25846;-75
2022/05/02 02:00:52;;;;;;;23.70;15.38;;;;;;;6.35;67.24;97392.92;1566569;91;25739;-76
2022/05/02 02:03:18;;;;;;;28.02;16.93;;;;;;;6.33;67.28;97393.11;1579112;89;25781;-75
2022/05/02 02:05:51;;;;;;;28.05;17.10;;;;;;;6.30;67.31;97385.93;1597883;88;27380;-75
2022/05/02 02:08:30;;;;;;;31.82;17.73;;;;;;;6.25;67.42;97391.03;1599490;89;25814;-74
2022/05/02 02:11:00;;;;;;;26.97;15.90;;;;;;;6.25;67.55;97388.35;1600539;89;25883;-75
2022/05/02 02:13:27;;;;;;;26.95;16.02;;;;;;;6.25;67.61;97393.72;1600497;89;26382;-75
2022/05/02 02:15:54;;;;;;;26.87;16.50;;;;;;;6.23;67.60;97385.85;1600606;89;25805;-74
2022/05/02 02:18:21;;;;;;;27.25;16.00;;;;;;;6.23;67.65;97388.53;1600440;89;27417;-74
2022/05/02 02:20:52;;;;;;;31.33;16.48;;;;;;;6.23;67.81;97393.06;1600502;89;25844;-76
2022/05/02 02:23:20;;;;;;;21.52;15.35;;;;;;;6.21;67.85;97387.88;1610673;87;25910;-76
2022/05/02 02:25:47;;;;;;;24.32;15.65;;;;;;;6.17;67.91;97391.10;1627920;87;26405;-74
2022/05/02 02:28:15;;;;;;;20.32;14.78;;;;;;;6.16;68.01;97387.59;1627998;87;25849;-75
2022/05/02 02:30:45;;;;;;;24.12;15.65;;;;;;;6.16;68.02;97388.13;1654773;86;27568;-77
2022/05/02 02:33:15;;;;;;;20.75;14.60;;;;;;;6.17;68.16;97385.73;1658170;86;25785;-77
2022/05/02 02:35:41;;;;;;;20.57;14.03;;;;;;;6.11;68.17;97384.14;1658127;86;25783;-77
2022/05/02 02:38:12;;;;;;;20.32;14.18;;;;;;;6.11;68.36;97383.30;1658181;86;26635;-76
2022/05/02 02:40:40;;;;;;;23.85;15.05;;;;;;;6.14;68.48;97382.95;1658190;86;25700;-75
2022/05/02 02:43:07;;;;;;;16.27;12.85;;;;;;;6.17;68.53;97387.91;1658281;86;27403;-74
2022/05/02 02:45:34;;;;;;;20.02;14.05;;;;;;;6.17;68.47;97381.21;1657911;86;25706;-75
2022/05/02 02:48:01;;;;;;;19.98;14.50;;;;;;;6.18;68.44;97386.06;1658457;86;25785;-75
2022/05/02 02:50:28;;;;;;;18.48;14.03;;;;;;;6.18;68.42;97384.22;1658178;86;25803;-75
2022/05/02 02:52:54;;;;;;;25.40;15.70;;;;;;;6.19;68.42;97387.23;1654249;86;25691;-77
2022/05/02 02:55:21;;;;;;;33.85;18.85;;;;;;;6.22;68.40;97392.73;1650844;86;27522;-74
2022/05/02 02:57:48;;;;;;;36.98;19.67;;;;;;;6.23;68.45;97387.19;1650902;85;25763;-75
2022/05/02 03:00:15;;;;;;;43.42;22.93;;;;;;;6.26;68.42;97391.36;1650575;85;25824;-75
2022/05/02 03:02:43;;;;;;;49.45;25.12;;;;;;;6.28;68.47;97389.33;1674917;84;25700;-74
2022/05/02 03:07:57;;;;;;;54.08;25.25;;;;;;;6.29;68.53;97384.27;1678996;84;27403;-76
2022/05/02 03:10:26;;;;;;;53.08;25.92;;;;;;;6.21;68.61;97387.05;1677972;85;25753;-75
2022/05/02 03:12:54;;;;;;;43.58;23.73;;;;;;;6.16;68.73;97390.80;1678105;85;25782;-75
2022/05/02 03:15:21;;;;;;;48.92;23.18;;;;;;;6.10;68.85;97383.81;1677987;85;25745;-74
2022/05/02 03:17:48;;;;;;;54.05;25.95;;;;;;;6.10;68.96;97387.00;1678169;85;25739;-74
2022/05/02 03:20:15;;;;;;;46.50;24.92;;;;;;;6.09;69.00;97387.50;1678181;85;28133;-75
2022/05/02 03:22:41;;;;;;;41.08;21.55;;;;;;;6.10;68.99;97386.48;1677946;85;25880;-74
2022/05/02 03:25:09;;;;;;;28.47;17.48;;;;;;;6.11;69.14;97388.16;1678065;85;25822;-74
2022/05/02 03:27:35;;;;;;;23.42;15.88;;;;;;;6.11;69.18;97388.16;1678202;85;25909;-74
2022/05/02 03:30:02;;;;;;;23.62;16.42;;;;;;;6.16;69.27;97384.91;1678061;85;25747;-74
2022/05/02 03:32:29;;;;;;;25.08;15.70;;;;;;;6.19;69.30;97389.08;1669558;85;28070;-75
2022/05/02 03:34:55;;;;;;;29.75;17.62;;;;;;;6.21;69.22;97387.05;1676800;84;25778;-75
2022/05/02 03:37:22;;;;;;;32.55;17.90;;;;;;;6.22;69.26;97386.86;1706779;84;25786;-74
2022/05/02 03:39:49;;;;;;;23.90;15.75;;;;;;;6.22;69.23;97382.84;1706820;84;26876;-74
2022/05/02 03:42:15;;;;;;;26.37;16.82;;;;;;;6.23;69.28;97376.98;1706770;83;26012;-75
2022/05/02 03:44:42;;;;;;;27.15;16.93;;;;;;;6.24;69.27;97381.33;1706815;84;28142;-75
2022/05/02 03:47:08;;;;;;;26.50;17.02;;;;;;;6.26;69.28;97378.79;1706664;84;25746;-78
2022/05/02 03:49:35;;;;;;;25.92;16.60;;;;;;;6.28;69.31;97375.92;1706788;84;25714;-74
2022/05/02 03:52:02;;;;;;;27.90;15.63;;;;;;;6.29;69.27;97381.58;1706763;83;25755;-74
2022/05/02 03:54:28;;;;;;;24.40;16.00;;;;;;;6.27;69.27;97380.45;1712007;83;25486;-74
2022/05/02 03:56:55;;;;;;;25.05;16.48;;;;;;;6.27;69.31;97383.64;1712291;83;27404;-77
2022/05/02 03:59:22;;;;;;;28.92;18.32;;;;;;;6.27;69.33;97380.96;1712086;83;25831;-74
2022/05/02 04:01:48;;;;;;;28.73;18.25;;;;;;;6.27;69.35;97389.00;1711945;83;25729;-75
2022/05/02 04:04:15;;;;;;;31.37;19.98;;;;;;;6.28;69.40;97388.80;1712050;83;26530;-74
2022/05/02 04:06:41;;;;;;;37.10;19.25;;;;;;;6.28;69.50;97387.99;1712328;83;25892;-74
2022/05/02 04:09:08;;;;;;;28.95;17.75;;;;;;;6.28;69.61;97389.33;1712318;83;28063;-75
2022/05/02 04:11:34;;;;;;;31.80;19.30;;;;;;;6.29;69.75;97389.63;1712166;83;26481;-74
2022/05/02 04:14:01;;;;;;;31.75;19.42;;;;;;;6.29;69.80;97387.78;1712247;83;25709;-75
2022/05/02 04:16:28;;;;;;;30.72;18.50;;;;;;;6.31;69.89;97386.26;1712219;83;26396;-77
2022/05/02 04:18:54;;;;;;;24.98;17.48;;;;;;;6.32;69.96;97388.76;1712294;83;25761;-75
2022/05/02 04:21:21;;;;;;;32.60;18.05;;;;;;;6.34;69.96;97388.07;1712291;83;27546;-75
2022/05/02 04:23:47;;;;;;;27.73;18.52;;;;;;;6.37;70.00;97392.23;1712213;83;25750;-75
2022/05/02 04:26:14;;;;;;;28.23;18.27;;;;;;;6.42;70.07;97385.79;1712149;83;25694;-75
2022/05/02 04:28:40;;;;;;;33.90;20.85;;;;;;;6.46;70.08;97390.61;1712249;83;25678;-75
2022/05/02 04:31:07;;;;;;;37.83;24.00;;;;;;;6.50;70.11;97393.25;1712292;83;25741;-74
2022/05/02 04:33:33;;;;;;;35.30;22.70;;;;;;;6.57;70.11;97399.20;1712281;83;27512;-77
2022/05/02 04:36:00;;;;;;;35.45;23.07;;;;;;;6.61;70.15;97399.99;1711861;83;25714;-77
2022/05/02 04:38:28;;;;;;;32.38;20.88;;;;;;;6.68;70.21;97400.06;1712362;83;25766;-76
2022/05/02 04:40:57;;;;;;;36.13;23.32;;;;;;;6.72;70.12;97394.14;1712211;83;26100;-77
2022/05/02 04:43:24;;;;;;;33.95;23.40;;;;;;;6.77;70.10;97398.93;1712261;83;25848;-77
2022/05/02 04:45:51;;;;;;;35.38;23.20;;;;;;;6.83;70.15;97399.53;1712118;83;27436;-76
2022/05/02 04:48:18;;;;;;;30.50;20.77;;;;;;;6.88;70.15;97397.94;1712135;83;25698;-75
2022/05/02 04:50:45;;;;;;;30.08;21.00;;;;;;;6.93;70.07;97396.55;1712502;83;25690;-74
2022/05/02 04:53:11;;;;;;;31.05;21.42;;;;;;;6.96;70.00;97392.16;1709983;83;25682;-75
2022/05/02 04:55:38;;;;;;;26.57;18.00;;;;;;;7.02;69.94;97391.38;1706920;84;25735;-74
2022/05/02 04:58:04;;;;;;;25.52;18.12;;;;;;;7.08;69.88;97393.33;1706838;84;27615;-78
2022/05/02 05:00:31;;;;;;;23.62;16.07;;;;;;;7.13;69.92;97392.23;1706905;84;26271;-76
2022/05/02 05:02:58;;;;;;;25.15;15.40;;;;;;;7.18;69.84;97388.48;1706833;84;25722;-77
2022/05/02 05:05:25;;;;;;;20.40;15.32;;;;;;;7.21;69.76;97389.45;1706803;84;26609;-74
2022/05/02 05:07:51;;;;;;;20.48;15.40;;;;;;;7.26;69.75;97391.54;1707023;84;25987;-76
2022/05/02 05:10:18;;;;;;;19.98;14.50;;;;;;;7.29;69.69;97386.63;1706879;84;28230;-77
2022/05/02 05:13:06;;;;;;;20.75;15.93;;;;;;;7.35;69.80;97393.94;1706806;84;25880;-75
2022/05/02 05:16:21;;;;;;;25.12;16.55;;;;;;;7.41;69.91;97394.50;1676500;85;25808;-75
2022/05/02 05:19:09;;;;;;;26.25;18.65;;;;;;;7.48;69.94;97387.35;1676415;85;26738;-76
2022/05/02 05:22:05;;;;;;;29.70;20.50;;;;;;;7.55;69.78;97390.92;1676492;85;25758;-77
2022/05/02 05:25:06;;;;;;;22.77;16.50;;;;;;;7.64;69.71;97383.55;1676400;85;28054;-75
2022/05/02 05:27:38;;;;;;;23.35;17.52;;;;;;;7.71;69.52;97389.00;1676421;85;25818;-77
2022/05/02 05:30:10;;;;;;;23.62;19.75;;;;;;;7.80;69.52;97382.45;1547799;92;25846;-75
2022/05/02 05:33:14;;;;;;;25.32;19.02;;;;;;;7.85;69.40;97374.11;1548080;92;25582;-75
2022/05/02 05:36:19;;;;;;;26.48;19.75;;;;;;;7.96;69.47;97376.80;1548125;92;25883;-75
2022/05/02 05:39:04;;;;;;;25.85;19.48;;;;;;;8.04;69.35;97375.30;1548062;92;27537;-78
2022/05/02 05:42:10;;;;;;;23.02;15.30;;;;;;;8.15;69.30;97373.92;1547950;92;25854;-74
2022/05/02 05:45:04;;;;;;;24.27;14.95;;;;;;;8.22;69.20;97371.58;1548027;92;26041;-74
2022/05/02 05:48:05;;;;;;;19.27;13.45;;;;;;;8.25;68.86;97363.13;1545815;92;25810;-75
2022/05/02 05:50:35;;;;;;;23.52;13.18;;;;;;;8.32;68.66;97365.07;1548024;92;25892;-76
2022/05/02 05:53:13;;;;;;;19.65;14.05;;;;;;;8.37;68.39;97363.95;1538138;92;27453;-76
2022/05/02 05:56:10;;;;;;;19.55;14.20;;;;;;;8.42;68.46;97368.23;1597220;89;25916;-75
2022/05/02 05:59:09;;;;;;;16.82;13.58;;;;;;;8.45;68.36;97367.84;1597758;89;25944;-75
2022/05/02 06:01:58;;;;;;;23.65;14.90;;;;;;;8.54;68.27;97366.64;1591173;89;25885;-77
2022/05/02 06:04:26;;;;;;;19.65;15.13;;;;;;;8.66;68.04;97370.42;1580599;89;25924;-75
2022/05/02 06:06:55;;;;;;;27.22;15.83;;;;;;;8.75;67.96;97367.03;1579502;88;28296;-76
2022/05/02 06:09:23;;;;;;;19.75;14.23;;;;;;;8.87;68.13;97367.61;1610739;89;26019;-77
2022/05/02 06:11:51;;;;;;;23.83;15.53;;;;;;;8.98;67.80;97366.19;1610866;89;26534;-74
2022/05/02 06:14:20;;;;;;;19.95;14.78;;;;;;;9.12;67.62;97365.72;1611039;89;26329;-75
2022/05/02 06:19:34;;;;;;;22.82;15.50;;;;;;;9.35;67.24;97369.70;1588381;89;27517;-73
2022/05/02 06:22:03;;;;;;;27.30;15.23;;;;;;;9.47;67.12;97361.02;1637990;87;25809;-77
2022/05/02 06:24:33;;;;;;;20.70;14.00;;;;;;;9.58;66.86;97362.59;1638046;87;25757;-76
2022/05/02 06:27:01;;;;;;;22.85;15.50;;;;;;;9.70;66.67;97356.89;1637790;87;25829;-76
2022/05/02 06:29:28;;;;;;;24.23;14.30;;;;;;;9.84;66.51;97358.24;1637470;87;25777;-78
2022/05/02 06:32:00;;;;;;;20.55;14.00;;;;;;;9.98;66.34;97349.11;1630497;87;27445;-78
2022/05/02 06:34:29;;;;;;;18.62;12.73;;;;;;;10.08;66.11;97350.34;1638779;87;26219;-75
2022/05/02 06:37:22;;;;;;;20.50;13.08;;;;;;;10.22;65.86;97350.36;1641943;87;25731;-75
2022/05/02 06:40:21;;;;;;;19.62;13.83;;;;;;;10.33;65.73;97341.09;1636343;87;26578;-76
2022/05/02 06:42:59;;;;;;;17.27;12.50;;;;;;;10.48;65.50;97344.08;1623256;88;25856;-79
2022/05/02 06:45:39;;;;;;;15.90;11.93;;;;;;;10.62;65.26;97344.34;1627863;87;28708;-75
2022/05/02 06:48:26;;;;;;;16.25;12.43;;;;;;;10.76;65.04;97340.53;1626104;86;26445;-75
2022/05/02 06:51:00;;;;;;;16.77;11.97;;;;;;;10.88;64.86;97340.17;1636547;86;25838;-76
2022/05/02 06:54:08;;;;;;;15.23;12.13;;;;;;;11.02;64.58;97341.77;1523643;91;25970;-76
2022/05/02 06:56:52;;;;;;;18.12;11.20;;;;;;;11.15;64.60;97343.05;1490354;94;27050;-75
2022/05/02 06:59:36;;;;;;;19.45;11.33;;;;;;;11.33;64.34;97342.86;1484776;96;27047;-76
2022/05/02 07:02:20;;;;;;;15.43;11.00;;;;;;;11.48;63.89;97340.65;1524907;94;25855;-74
2022/05/02 07:04:56;;;;;;;16.05;11.10;;;;;;;11.64;63.51;97338.78;1524837;94;25844;-77
2022/05/02 07:07:44;;;;;;;15.55;11.63;;;;;;;11.80;63.22;97331.52;1513066;93;25874;-77
2022/05/02 07:10:27;;;;;;;22.07;11.50;;;;;;;11.97;63.29;97336.34;1512269;93;25390;-75
2022/05/02 07:13:15;;;;;;;14.75;11.38;;;;;;;12.17;62.62;97335.66;1496647;94;27442;-75
2022/05/02 07:15:48;;;;;;;16.85;11.70;;;;;;;12.32;62.33;97325.84;1492412;96;25567;-75
2022/05/02 07:18:41;;;;;;;15.60;11.45;;;;;;;12.48;61.88;97332.83;1509796;94;25947;-75
2022/05/02 07:21:33;;;;;;;13.90;10.32;;;;;;;12.66;61.57;97328.47;1511562;93;26022;-75
2022/05/02 07:24:19;;;;;;;13.58;10.10;;;;;;;12.82;61.09;97329.20;1519924;93;25919;-78
2022/05/02 07:27:10;;;;;;;15.43;9.98;;;;;;;12.98;60.52;97325.87;1541167;92;27523;-75
2022/05/02 07:29:39;;;;;;;14.43;10.55;;;;;;;13.15;60.28;97317.45;1528177;92;26096;-75
2022/05/02 07:32:10;;;;;;;13.85;10.23;;;;;;;13.41;60.12;97320.81;1534450;92;25877;-75
2022/05/02 07:34:39;;;;;;;17.73;10.10;;;;;;;13.64;59.36;97318.19;1534884;92;25925;-75
2022/05/02 07:37:06;;;;;;;18.20;12.03;;;;;;;13.88;58.78;97313.09;1533830;92;26635;-77
2022/05/02 07:39:39;;;;;;;14.05;10.68;;;;;;;14.27;58.46;97312.91;1547288;92;27519;-75
2022/05/02 07:42:08;;;;;;;12.95;9.58;;;;;;;14.72;58.23;97314.50;1533955;92;25984;-75
2022/05/02 07:44:35;;;;;;;11.70;9.80;;;;;;;15.16;57.57;97309.38;1528529;92;25856;-75
2022/05/02 07:49:34;;;;;;;12.37;8.95;;;;;;;15.97;56.66;97298.59;1536275;91;25888;-78
2022/05/02 07:52:03;;;;;;;14.25;8.65;;;;;;;16.41;55.79;97302.80;1523839;92;27453;-76
2022/05/02 07:54:34;;;;;;;12.37;8.70;;;;;;;16.88;54.86;97303.19;1521322;93;25914;-76
2022/05/02 07:57:04;;;;;;;10.43;7.75;;;;;;;17.27;52.89;97299.27;1502663;94;25838;-75
2022/05/02 07:59:34;;;;;;;12.53;7.60;;;;;;;17.67;53.04;97294.50;1476426;95;25897;-77
2022/05/02 08:02:01;;;;;;;9.78;7.37;;;;;;;18.19;52.33;97285.93;1450177;97;25965;-76
2022/05/02 08:04:28;;;;;;;8.08;6.15;;;;;;;18.72;51.41;97282.70;1466834;96;27031;-76
2022/05/02 08:07:15;;;;;;;12.35;6.45;;;;;;;19.13;49.03;97281.50;1472710;95;25806;-76
2022/05/02 08:10:37;;;;;;;11.10;6.33;;;;;;;19.42;49.12;97278.58;1472696;97;25990;-74
2022/05/02 08:13:26;;;;;;;8.95;6.28;;;;;;;19.94;48.37;97274.80;1472578;96;25810;-74
2022/05/02 08:16:03;;;;;;;13.48;6.53;;;;;;;20.46;47.15;97278.07;1472723;96;25878;-73
2022/05/02 08:19:05;;;;;;;7.97;5.62;;;;;;;20.76;46.31;97276.36;1472445;96;27442;-75
2022/05/02 08:28:09;;;;;;;7.47;5.17;;;;;;;22.06;43.63;97266.84;1428518;100;25964;-73
2022/05/02 08:30:43;;;;;;;9.88;5.47;;;;;;;22.53;42.93;97257.30;1411826;100;25907;-74
2022/05/02 08:33:15;;;;;;;8.25;5.55;;;;;;;22.94;42.25;97263.75;1406566;101;28427;-76
2022/05/02 08:36:06;;;;;;;7.83;5.12;;;;;;;23.31;41.58;97262.95;1412679;99;25336;-75
2022/05/02 08:38:50;;;;;;;10.65;6.28;;;;;;;23.64;40.25;97259.78;1407822;101;26044;-75
2022/05/02 08:41:51;;;;;;;8.50;5.45;;;;;;;23.96;40.00;97258.43;1405595;101;26498;-74
2022/05/02 08:44:37;;;;;;;10.70;5.50;;;;;;;24.32;38.92;97252.33;1405311;101;25838;-74
2022/05/02 08:47:36;;;;;;;6.22;5.00;;;;;;;24.56;38.39;97253.55;1367439;104;27469;-74
2022/05/02 08:50:28;;;;;;;6.78;5.70;;;;;;;24.72;37.05;97256.27;1370339;103;25889;-72
2022/05/02 08:53:29;;;;;;;6.83;4.95;;;;;;;24.88;37.42;97249.30;1388610;101;25900;-74
2022/05/02 08:56:27;;;;;;;8.05;5.83;;;;;;;25.23;37.32;97247.80;1409205;101;26675;-76
2022/05/02 08:59:04;;;;;;;8.33;5.75;;;;;;;25.55;36.98;97251.50;1425968;98;25900;-76
2022/05/02 09:02:06;;;;;;;6.30;5.37;;;;;;;25.65;37.02;97245.77;1385604;103;27462;-74
2022/05/02 09:05:16;;;;;;;5.65;5.10;;;;;;;25.79;36.78;97253.45;1392951;102;25808;-73
2022/05/02 09:08:10;;;;;;;9.58;6.70;;;;;;;25.76;35.91;97256.27;1390575;103;26257;-74
2022/05/02 09:11:00;;;;;;;6.70;5.92;;;;;;;24.99;35.22;97256.87;1390799;102;26540;-73
2022/05/02 09:14:08;;;;;;;9.10;6.62;;;;;;;24.17;35.70;97247.86;1389427;103;25415;-73
2022/05/02 09:16:52;;;;;;;8.93;6.28;;;;;;;23.92;36.31;97253.80;1392085;102;27367;-73
2022/05/02 09:19:50;;;;;;;7.45;5.65;;;;;;;23.83;36.45;97245.41;1393947;102;25951;-75
2022/05/02 09:22:47;;;;;;;10.60;6.87;;;;;;;24.10;36.36;97243.31;1373987;104;25402;-74
2022/05/02 09:25:24;;;;;;;7.65;5.67;;;;;;;23.85;36.13;97237.66;1402910;101;25903;-73
2022/05/02 09:27:58;;;;;;;8.28;6.42;;;;;;;24.12;36.14;97238.88;1443887;98;26077;-75
2022/05/02 09:30:51;;;;;;;8.45;5.75;;;;;;;24.30;35.51;97239.39;1431650;99;28263;-75
2022/05/02 09:33:31;;;;;;;6.83;5.72;;;;;;;24.55;35.73;97229.27;1433934;100;25887;-73
2022/05/02 09:36:31;;;;;;;6.90;5.80;;;;;;;24.77;35.16;97226.61;1447101;98;25911;-73
2022/05/02 09:39:24;;;;;;;7.22;5.90;;;;;;;24.88;35.17;97235.50;1445132;97;26593;-74
2022/05/02 09:42:26;;;;;;;6.30;5.53;;;;;;;25.18;35.05;97228.56;1442568;97;25798;-77
2022/05/02 09:51:54;;;;;;;6.60;5.40;;;;;;;25.69;33.41;97214.99;1492051;94;25870;-77
2022/05/02 09:57:21;;;;;;;8.50;5.75;;;;;;;25.87;32.88;97203.48;1501199;94;26996;-75
2022/05/02 10:01:06;;;;;;;7.50;5.10;;;;;;;25.84;32.51;97207.72;1519191;94;27576;-77
2022/05/02 10:02:23;;;;;;;8.58;5.30;;;;;;;25.59;32.20;97198.63;1525146;94;25803;-74
2022/05/02 10:05:07;;;;;;;8.15;5.67;;;;;;;25.27;32.12;97194.92;1607559;83;25811;-76
2022/05/02 10:07:44;;;;;;;12.70;6.10;;;;;;;25.09;32.76;97197.28;1712571;83;25791;-78
2022/05/02 10:10:16;;;;;;;7.53;5.95;;;;;;;24.95;33.11;97193.72;1711327;83;25856;-74
2022/05/02 10:13:06;;;;;;;8.95;6.10;;;;;;;25.12;33.18;97186.97;1667665;85;27405;-76
2022/05/02 10:16:04;;;;;;;8.73;6.20;;;;;;;24.98;32.82;97186.20;1682612;85;25664;-80
2022/05/02 10:19:18;;;;;;;6.65;5.90;;;;;;;24.63;32.85;97188.56;1683618;85;25736;-75
2022/05/02 10:22:02;;;;;;;7.03;6.12;;;;;;;24.28;32.90;97184.53;1680196;85;25780;-75
2022/05/02 10:24:55;;;;;;;8.68;5.97;;;;;;;23.91;32.68;97181.91;1682217;85;25788;-76
2022/05/02 10:27:29;;;;;;;7.87;6.30;;;;;;;23.56;32.53;97188.80;1679075;85;27483;-77
2022/05/02 10:30:13;;;;;;;6.30;5.65;;;;;;;23.14;32.65;97189.14;1627035;86;25832;-75
2022/05/02 10:32:56;;;;;;;6.80;5.67;;;;;;;22.55;32.74;97184.12;1637515;86;25888;-76
2022/05/02 10:35:26;;;;;;;7.95;5.90;;;;;;;22.27;33.31;97177.55;1634637;86;25787;-75
2022/05/02 10:38:01;;;;;;;9.60;5.92;;;;;;;22.03;33.44;97191.27;1636602;86;25859;-75
2022/05/02 10:40:40;;;;;;;7.35;5.50;;;;;;;21.84;33.29;97184.28;1633836;86;26690;-75
2022/05/02 10:43:10;;;;;;;7.67;5.67;;;;;;;21.65;33.78;97177.84;1620657;87;25839;-76
2022/05/02 10:45:39;;;;;;;6.78;5.87;;;;;;;21.47;33.64;97176.63;1605327;88;25893;-75
2022/05/02 10:48:23;;;;;;;7.70;5.85;;;;;;;21.37;33.54;97175.90;1587206;89;26506;-77
2022/05/02 10:51:08;;;;;;;6.87;5.00;;;;;;;21.42;34.42;97161.56;1575090;91;25976;-75
2022/05/02 10:53:54;;;;;;;5.97;5.37;;;;;;;21.97;34.73;97176.48;1571576;91;27405;-77
2022/05/02 10:56:37;;;;;;;6.85;5.33;;;;;;;22.55;34.59;97168.44;1575273;90;25854;-75
2022/05/02 10:59:05;;;;;;;7.35;5.75;;;;;;;23.06;33.66;97171.92;1526344;93;25794;-76
2022/05/02 11:02:04;;;;;;;5.83;5.05;;;;;;;23.32;32.97;97174.54;1527370;93;25886;-76
2022/05/02 11:04:45;;;;;;;6.20;4.62;;;;;;;23.64;32.73;97161.97;1527165;93;25886;-78
2022/05/02 11:07:28;;;;;;;5.97;4.80;;;;;;;24.17;32.61;97150.53;1514508;93;27572;-79
2022/05/02 11:10:00;;;;;;;7.28;5.17;;;;;;;24.43;31.90;97148.13;1521783;94;25792;-75
2022/05/02 11:12:36;;;;;;;7.70;5.12;;;;;;;24.64;31.87;97150.16;1521851;94;25832;-78
2022/05/02 11:15:16;;;;;;;6.75;5.50;;;;;;;24.59;31.28;97148.90;1547172;91;25844;-75
2022/05/02 11:21:11;;;;;;;11.35;5.72;;;;;;;24.32;31.21;97153.84;1528896;92;28366;-77
2022/05/02 11:24:18;;;;;;;7.62;5.28;;;;;;;23.95;30.84;97149.28;1518014;94;25894;-75
2022/05/02 11:27:16;;;;;;;6.12;5.45;;;;;;;24.04;31.24;97150.20;1517477;94;25847;-75
2022/05/02 11:30:06;;;;;;;5.33;4.83;;;;;;;23.89;31.09;97147.75;1520730;94;25944;-78
2022/05/02 11:32:52;;;;;;;6.15;5.10;;;;;;;23.86;30.90;97149.72;1520774;94;26017;-75
2022/05/02 11:35:34;;;;;;;6.78;5.15;;;;;;;23.82;30.94;97145.92;1520822;94;27401;-78
2022/05/02 11:38:32;;;;;;;6.90;5.03;;;;;;;23.88;31.61;97143.35;1520822;94;25912;-75
2022/05/02 11:41:06;;;;;;;5.45;4.95;;;;;;;23.96;31.08;97141.83;1520681;94;25893;-77
2022/05/02 11:43:36;;;;;;;5.47;4.97;;;;;;;23.84;31.39;97138.18;1555414;91;25844;-75
2022/05/02 11:46:24;;;;;;;5.45;4.83;;;;;;;23.86;31.00;97133.75;1536883;91;25803;-75
2022/05/02 11:49:19;;;;;;;7.62;4.78;;;;;;;24.03;31.29;97130.64;1508286;94;28122;-75
2022/05/02 11:51:50;;;;;;;6.60;4.83;;;;;;;23.95;30.78;97120.33;1473933;95;25781;-76
2022/05/02 11:54:30;;;;;;;5.67;4.90;;;;;;;24.04;31.40;97121.25;1510329;94;25986;-75
2022/05/02 11:57:14;;;;;;;7.95;4.75;;;;;;;24.20;31.37;97121.79;1510304;94;25855;-76
2022/05/02 12:00:03;;;;;;;10.25;6.87;;;;;;;24.26;30.73;97119.23;1545176;92;25901;-76
2022/05/02 12:02:42;;;;;;;8.58;5.03;;;;;;;24.51;31.55;97117.90;1544871;92;27441;-76
2022/05/02 12:05:21;;;;;;;8.98;5.40;;;;;;;24.94;31.29;97118.92;1549100;92;25784;-76
2022/05/02 12:07:54;;;;;;;7.12;4.75;;;;;;;25.27;30.37;97116.20;1549216;92;25908;-75
2022/05/02 12:10:42;;;;;;;5.42;4.92;;;;;;;25.45;30.15;97107.48;1551561;92;25910;-76
2022/05/02 12:13:12;;;;;;;7.65;5.00;;;;;;;25.67;30.28;97110.27;1551764;91;25725;-76
2022/05/02 12:16:03;;;;;;;6.00;5.05;;;;;;;25.93;30.44;97112.37;1526228;93;27421;-76
2022/05/02 12:18:50;;;;;;;9.78;4.97;;;;;;;26.08;29.59;97103.07;1526105;93;25961;-78
2022/05/02 12:21:37;;;;;;;6.78;4.87;;;;;;;26.14;29.04;97097.66;1497816;94;25976;-76
2022/05/02 12:26:52;;;;;;;6.03;4.90;;;;;;;25.99;28.49;97087.02;1428644;100;25819;-76
2022/05/02 12:29:21;;;;;;;5.95;4.62;;;;;;;25.58;28.80;97096.12;1428376;98;27445;-73
2022/05/02 12:32:03;;;;;;;5.40;4.87;;;;;;;25.35;28.89;97093.37;1428575;100;25903;-73
2022/05/02 12:34:42;;;;;;;8.03;5.42;;;;;;;25.08;29.06;97094.84;1428710;100;25950;-76
2022/05/02 12:37:23;;;;;;;11.95;7.45;;;;;;;24.87;29.06;97090.91;1391109;103;54604;-73
2022/05/02 12:39:50;;;;;;;8.48;6.03;;;;;;;24.66;29.39;97096.85;1385321;101;25932;-73
2022/05/02 12:42:19;;;;;;;5.15;4.65;;;;;;;24.47;29.41;97094.80;1362938;103;27515;-74